Time;durP1;ratioP1;P1;durP2;ratioP2;P2;SDS_P1;SDS_P2;PMS_P1;PMS_P2;Temp;Humidity;BMP_temperature;BMP_pressure;BME280_temperature;BME280_humidity;BME280_pressure;Samples;Min_cycle;Max_cycle;Signal;HPM_P1;HPM_P2
2023/03/18 00:00:01;;;;;;;5.75;4.07;;;;;;;5.18;38.36;99061.44;5129685;28;20050;-70
2023/03/18 00:02:27;;;;;;;7.50;5.18;;;;;;;4.61;38.34;98975.16;5129129;28;20039;-70
2023/03/18 00:04:54;;;;;;;5.70;4.20;;;;;;;5.12;38.70;99056.41;5129469;28;20053;-69
2023/03/18 00:07:21;;;;;;;9.13;5.20;;;;;;;5.09;38.56;99070.50;5128634;28;20036;-69
2023/03/18 00:09:51;;;;;;;10.57;5.38;;;;;;;4.04;39.42;98898.47;5129390;28;20111;-69
2023/03/18 00:12:18;;;;;;;6.72;5.47;;;;;;;5.05;38.80;99062.81;5127648;28;20127;-69
2023/03/18 00:14:45;;;;;;;5.40;4.38;;;;;;;5.04;38.72;99058.47;5129221;28;20043;-69
2023/03/18 00:17:12;;;;;;;7.07;4.88;;;;;;;5.06;38.84;99059.25;5128993;28;20044;-69
2023/03/18 00:19:40;;;;;;;6.60;4.72;;;;;;;5.05;38.86;99054.91;5111000;28;20054;-69
2023/03/18 00:22:07;;;;;;;8.05;5.03;;;;;;;5.03;38.89;99060.22;5128548;28;20103;-69
2023/03/18 00:24:34;;;;;;;7.78;4.95;;;;;;;4.22;39.14;98931.09;5127730;28;20046;-69
2023/03/18 00:27:02;;;;;;;7.43;4.82;;;;;;;4.98;39.63;99062.19;5110551;28;20077;-69
2023/03/18 00:29:29;;;;;;;6.50;4.43;;;;;;;4.96;39.06;99058.75;5128380;28;20044;-69
2023/03/18 00:31:57;;;;;;;6.85;4.90;;;;;;;4.98;39.03;99061.31;5128204;28;20075;-69
2023/03/18 00:34:24;;;;;;;6.57;4.57;;;;;;;5.01;38.71;99056.81;5110789;28;20039;-69
2023/03/18 00:36:55;;;;;;;13.50;5.68;;;;;;;4.42;38.81;98982.84;5128582;27;20043;-69
2023/03/18 00:39:25;;;;;;;10.07;5.32;;;;;;;4.65;39.24;98995.13;5128873;28;20061;-69
2023/03/18 00:41:52;;;;;;;6.57;4.70;;;;;;;4.93;39.81;99058.00;5110018;28;20036;-69
2023/03/18 00:44:20;;;;;;;6.53;4.85;;;;;;;4.90;39.53;99045.00;5128729;28;20036;-69
2023/03/18 00:46:47;;;;;;;7.35;5.22;;;;;;;4.39;39.84;98977.69;5127497;28;20047;-69
2023/03/18 00:49:16;;;;;;;8.30;5.75;;;;;;;4.75;40.10;99054.25;5127195;28;20043;-69
2023/03/18 00:51:43;;;;;;;6.82;5.32;;;;;;;4.73;40.08;99050.81;5128583;28;20036;-69
2023/03/18 00:54:12;;;;;;;7.25;4.65;;;;;;;4.10;39.07;98963.81;5128256;28;20326;-69
2023/03/18 00:56:40;;;;;;;7.78;5.20;;;;;;;4.27;40.30;98988.63;5128209;28;20088;-69
2023/03/18 00:59:07;;;;;;;6.65;4.57;;;;;;;4.68;39.60;99040.50;5128156;28;20044;-69
2023/03/18 01:01:37;;;;;;;8.70;5.03;;;;;;;4.66;40.27;99055.44;5128036;28;20031;-70
2023/03/18 01:04:05;;;;;;;8.52;5.07;;;;;;;4.64;39.57;99045.91;5127743;28;20040;-69
2023/03/18 01:06:33;;;;;;;7.53;4.93;;;;;;;4.66;40.10;99046.72;5128274;28;20047;-69
2023/03/18 01:09:01;;;;;;;7.85;5.30;;;;;;;4.64;40.08;99043.28;5127941;28;20040;-69
2023/03/18 01:11:28;;;;;;;6.68;4.78;;;;;;;4.62;39.89;99029.34;5127073;28;20044;-69
2023/03/18 01:13:55;;;;;;;7.97;4.43;;;;;;;4.61;40.48;99060.00;5126623;28;20038;-69
2023/03/18 01:16:22;;;;;;;7.43;5.47;;;;;;;4.60;39.76;99037.28;5127247;28;20047;-70
2023/03/18 01:18:51;;;;;;;7.00;4.90;;;;;;;4.62;40.48;99032.84;5127851;28;20062;-69
2023/03/18 01:21:17;;;;;;;8.35;5.28;;;;;;;4.59;40.16;99039.97;5128013;28;20375;-69
2023/03/18 01:23:45;;;;;;;7.38;5.18;;;;;;;4.12;40.93;98955.91;5126485;28;20126;-69
2023/03/18 01:26:12;;;;;;;7.03;4.90;;;;;;;4.47;40.82;99029.00;5126819;28;20035;-67
2023/03/18 01:28:40;;;;;;;6.15;4.90;;;;;;;4.50;39.97;99033.28;5126281;28;20065;-68
2023/03/18 01:31:06;;;;;;;6.97;4.75;;;;;;;4.47;40.07;99029.00;5126115;28;20126;-68
2023/03/18 01:33:34;;;;;;;6.32;4.80;;;;;;;4.46;40.56;99027.28;5126579;28;20077;-68
2023/03/18 01:36:03;;;;;;;6.68;4.57;;;;;;;4.47;40.14;99023.75;5127364;28;20051;-68
2023/03/18 01:38:31;;;;;;;7.75;5.40;;;;;;;4.44;40.73;99023.84;5125970;28;20074;-68
2023/03/18 01:40:59;;;;;;;6.10;4.85;;;;;;;4.42;40.99;99030.94;5127525;28;20104;-68
2023/03/18 01:43:28;;;;;;;7.80;5.20;;;;;;;4.31;40.66;99003.34;5126853;28;20036;-68
2023/03/18 01:45:57;;;;;;;7.18;5.20;;;;;;;4.40;40.88;99038.00;5127473;28;20043;-68
2023/03/18 01:48:26;;;;;;;6.95;4.90;;;;;;;4.27;40.77;99014.88;5127235;27;20050;-68
2023/03/18 01:50:58;;;;;;;6.88;4.65;;;;;;;4.35;41.46;99028.56;5127127;28;20284;-68
2023/03/18 01:53:29;;;;;;;7.47;4.88;;;;;;;4.36;40.65;99009.28;5125163;28;20109;-68
2023/03/18 01:55:58;;;;;;;9.05;5.30;;;;;;;4.36;40.68;99025.03;5126778;28;20042;-67
2023/03/18 01:58:29;;;;;;;7.70;4.90;;;;;;;4.10;41.09;98986.56;5126717;28;20059;-68
2023/03/18 02:01:02;;;;;;;10.60;5.25;;;;;;;4.36;40.71;99020.66;5126970;28;20055;-68
2023/03/18 02:03:29;;;;;;;7.80;5.07;;;;;;;4.35;41.11;99049.56;5126557;28;20043;-67
2023/03/18 02:05:56;;;;;;;8.32;4.75;;;;;;;4.35;40.24;99021.56;5126602;28;20042;-67
2023/03/18 02:08:23;;;;;;;7.20;4.88;;;;;;;4.32;41.03;99034.78;5125735;28;20054;-68
2023/03/18 02:10:52;;;;;;;7.70;4.57;;;;;;;4.33;40.54;99030.41;5126531;28;20296;-68
2023/03/18 02:13:19;;;;;;;8.00;4.38;;;;;;;4.17;40.14;99007.28;5126542;28;20027;-67
2023/03/18 02:15:52;;;;;;;8.98;4.50;;;;;;;4.39;40.43;99041.53;5126556;28;20050;-67
2023/03/18 02:18:23;;;;;;;8.77;4.95;;;;;;;4.39;40.97;99057.28;5126388;28;20249;-67
2023/03/18 02:21:10;;;;;;;8.07;4.78;;;;;;;4.38;41.41;99038.97;5125508;28;20070;-68
2023/03/18 02:23:45;;;;;;;6.35;4.88;;;;;;;4.35;40.92;99050.41;5126525;28;20310;-68
2023/03/18 02:26:20;;;;;;;10.40;5.20;;;;;;;4.33;41.26;99047.00;5126542;28;20039;-68
2023/03/18 02:28:50;;;;;;;8.38;5.55;;;;;;;4.31;41.06;99042.72;5126193;28;20091;-68
2023/03/18 02:31:18;;;;;;;8.77;6.28;;;;;;;4.33;40.61;99048.75;5126189;28;20061;-68
2023/03/18 02:33:46;;;;;;;7.82;5.13;;;;;;;4.32;40.44;99049.66;5126521;28;20198;-68
2023/03/18 02:36:18;;;;;;;6.75;5.18;;;;;;;4.26;41.85;99053.38;5126114;28;20044;-68
2023/03/18 02:38:46;;;;;;;6.13;4.70;;;;;;;4.25;40.93;99049.03;5126340;28;20044;-68
2023/03/18 02:41:14;;;;;;;6.40;4.50;;;;;;;4.18;40.54;99047.50;5126131;28;20046;-68
2023/03/18 02:43:41;;;;;;;5.82;4.60;;;;;;;4.29;40.98;99041.91;5126015;28;20089;-68
2023/03/18 02:46:29;;;;;;;8.43;5.20;;;;;;;3.73;41.79;98964.25;5126275;28;20212;-68
2023/03/18 02:48:57;;;;;;;9.98;5.18;;;;;;;4.23;41.39;99050.00;5126339;28;20039;-68
2023/03/18 02:51:25;;;;;;;7.72;5.28;;;;;;;3.82;41.42;98987.53;5126583;28;20055;-67
2023/03/18 02:53:53;;;;;;;6.25;5.20;;;;;;;4.17;41.37;99051.88;5125958;28;20300;-69
2023/03/18 02:56:20;;;;;;;5.90;5.10;;;;;;;4.20;41.28;99060.56;5125682;28;20042;-68
2023/03/18 02:58:47;;;;;;;9.48;5.10;;;;;;;4.18;41.08;99071.09;5125086;28;20054;-68
2023/03/18 03:01:15;;;;;;;8.27;5.65;;;;;;;4.15;41.71;99069.44;5125810;28;20036;-68
2023/03/18 03:03:42;;;;;;;7.60;4.85;;;;;;;4.14;41.94;99093.09;5126107;28;20036;-68
2023/03/18 03:06:10;;;;;;;6.85;5.20;;;;;;;3.04;42.27;98915.00;5129982;28;20070;-68
2023/03/18 03:08:36;;;;;;;7.07;5.40;;;;;;;3.89;41.43;99035.34;5130311;28;20036;-68
2023/03/18 03:11:04;;;;;;;8.02;5.47;;;;;;;4.13;41.06;99076.50;5129996;28;20043;-68
2023/03/18 03:13:31;;;;;;;7.43;4.78;;;;;;;4.13;42.01;99079.13;5129659;28;20085;-68
2023/03/18 03:15:58;;;;;;;9.30;5.50;;;;;;;4.14;41.50;99077.34;5130068;28;20039;-68
2023/03/18 03:18:27;;;;;;;7.35;4.70;;;;;;;4.12;41.47;99074.78;5130401;28;20054;-68
2023/03/18 03:20:54;;;;;;;7.85;5.25;;;;;;;4.07;42.20;99083.72;5130131;28;20258;-68
2023/03/18 03:23:21;;;;;;;7.20;5.72;;;;;;;3.50;41.47;98987.72;5129958;28;20042;-68
2023/03/18 03:25:48;;;;;;;7.47;5.72;;;;;;;4.03;41.61;99088.19;5129741;28;20035;-68
2023/03/18 03:28:15;;;;;;;7.63;5.35;;;;;;;4.05;41.91;99103.88;5128831;28;20048;-69
2023/03/18 03:30:42;;;;;;;6.30;4.72;;;;;;;3.89;41.60;99071.22;5129813;28;20223;-69
2023/03/18 03:33:09;;;;;;;8.98;5.97;;;;;;;4.05;41.84;99120.47;5129574;28;20116;-69
2023/03/18 03:35:38;;;;;;;6.65;5.20;;;;;;;4.02;42.51;99109.22;5130099;28;20191;-68
2023/03/18 03:38:05;;;;;;;7.88;5.35;;;;;;;4.01;41.97;99120.63;5129476;28;20040;-69
2023/03/18 03:40:32;;;;;;;6.90;4.55;;;;;;;3.99;41.71;99120.69;5128890;28;20051;-69
2023/03/18 03:42:59;;;;;;;8.43;5.53;;;;;;;3.96;42.06;99126.00;5129869;28;20035;-68
2023/03/18 03:45:26;;;;;;;9.10;5.25;;;;;;;3.99;42.46;99132.94;5129883;28;20043;-68
2023/03/18 03:47:53;;;;;;;7.13;5.05;;;;;;;3.25;41.78;99007.75;5129812;28;20051;-69
2023/03/18 03:50:20;;;;;;;6.20;5.03;;;;;;;3.98;41.66;99134.69;5128406;28;20035;-69
2023/03/18 03:52:48;;;;;;;8.98;5.47;;;;;;;3.97;42.58;99140.84;5129478;27;20323;-69
2023/03/18 03:55:18;;;;;;;6.57;4.82;;;;;;;0.24;42.31;98524.44;5128288;28;20043;-68
2023/03/18 03:57:45;;;;;;;6.78;5.20;;;;;;;3.95;41.99;99147.91;5129155;28;20115;-68
2023/03/18 04:00:15;;;;;;;8.15;5.22;;;;;;;3.94;42.07;99147.94;5129025;28;20196;-68
2023/03/18 04:02:43;;;;;;;7.82;5.57;;;;;;;3.89;42.00;99131.50;5129013;28;20307;-69
2023/03/18 04:05:11;;;;;;;8.63;5.70;;;;;;;3.89;42.49;99147.22;5129160;28;20037;-69
2023/03/18 04:07:39;;;;;;;7.15;5.03;;;;;;;3.88;42.14;99148.13;5128106;28;20039;-68
2023/03/18 04:10:09;;;;;;;7.28;5.43;;;;;;;3.89;42.56;99144.63;5128793;28;20352;-68
2023/03/18 04:12:36;;;;;;;9.20;5.93;;;;;;;3.26;41.99;99040.88;5129372;28;20043;-68
2023/03/18 04:15:04;;;;;;;6.75;5.10;;;;;;;3.87;42.91;99155.16;5128691;28;20032;-69
2023/03/18 04:17:31;;;;;;;8.35;5.47;;;;;;;3.85;42.63;99147.34;5128358;28;20047;-69
2023/03/18 04:19:58;;;;;;;10.27;5.85;;;;;;;3.77;43.03;99151.97;5127849;28;20032;-69
2023/03/18 04:22:25;;;;;;;8.15;5.65;;;;;;;3.71;43.30;99156.53;5127813;28;20036;-68
2023/03/18 04:24:51;;;;;;;8.15;5.82;;;;;;;3.46;42.88;99117.97;5128418;28;20040;-69
2023/03/18 04:27:21;;;;;;;8.07;5.85;;;;;;;3.48;42.79;99129.25;5128479;28;20036;-70
2023/03/18 04:29:48;;;;;;;9.85;5.57;;;;;;;3.73;43.16;99167.81;5127661;28;20046;-69
2023/03/18 04:32:15;;;;;;;8.25;5.63;;;;;;;3.72;42.87;99168.72;5128260;28;20051;-69
2023/03/18 04:34:41;;;;;;;7.50;5.95;;;;;;;3.73;42.79;99170.44;5128379;28;20044;-69
2023/03/18 04:37:08;;;;;;;8.20;6.65;;;;;;;3.68;42.64;99162.72;5128876;28;20043;-69
2023/03/18 04:39:35;;;;;;;7.72;5.65;;;;;;;3.65;43.05;99152.34;5128911;27;20307;-68
2023/03/18 04:42:02;;;;;;;8.43;5.35;;;;;;;3.63;43.66;99164.63;5128560;28;20039;-69
2023/03/18 04:44:30;;;;;;;8.32;6.05;;;;;;;3.57;43.67;99169.19;5127291;28;20036;-68
2023/03/18 04:46:57;;;;;;;8.77;6.30;;;;;;;3.55;44.04;99164.00;5127339;28;20132;-69
2023/03/18 04:49:24;;;;;;;8.88;5.55;;;;;;;3.51;43.10;99162.38;5127256;28;20040;-69
2023/03/18 04:51:51;;;;;;;6.75;5.68;;;;;;;3.49;43.72;99172.91;5128051;28;20237;-68
2023/03/18 04:54:18;;;;;;;8.73;6.05;;;;;;;3.49;43.63;99170.28;5127219;28;20035;-69
2023/03/18 04:56:45;;;;;;;9.90;6.63;;;;;;;3.48;43.35;99165.94;5127158;28;20044;-69
2023/03/18 04:59:12;;;;;;;7.28;5.68;;;;;;;3.46;43.25;99172.13;5128321;27;20039;-69
2023/03/18 05:01:40;;;;;;;7.05;5.90;;;;;;;3.43;43.68;99169.59;5127109;28;20047;-70
2023/03/18 05:04:07;;;;;;;8.50;5.88;;;;;;;3.45;43.42;99173.03;5128052;28;20047;-69
2023/03/18 05:06:34;;;;;;;7.63;5.63;;;;;;;3.45;44.33;99170.41;5128399;28;20035;-69
2023/03/18 05:09:01;;;;;;;8.15;6.25;;;;;;;3.46;43.42;99178.22;5128066;28;20044;-69
2023/03/18 05:11:28;;;;;;;8.30;5.80;;;;;;;3.43;43.27;99182.69;5128286;28;20074;-70
2023/03/18 05:13:54;;;;;;;8.88;5.68;;;;;;;3.38;44.30;99179.34;5128162;28;20043;-69
2023/03/18 05:16:22;;;;;;;8.52;5.57;;;;;;;3.39;43.54;99186.31;5128143;28;20354;-69
2023/03/18 05:18:50;;;;;;;8.90;5.97;;;;;;;3.43;44.08;99185.31;5127802;28;20051;-69
2023/03/18 05:21:17;;;;;;;8.57;5.75;;;;;;;3.04;43.94;99127.94;5127499;28;20300;-70
2023/03/18 05:23:44;;;;;;;9.45;6.10;;;;;;;3.38;43.73;99190.69;5127370;28;20089;-69
2023/03/18 05:26:11;;;;;;;9.00;6.75;;;;;;;3.39;44.11;99188.94;5127369;28;20043;-69
2023/03/18 05:28:39;;;;;;;7.78;5.82;;;;;;;3.38;44.44;99195.06;5127320;27;20036;-69
2023/03/18 05:31:06;;;;;;;7.70;5.72;;;;;;;3.20;43.83;99159.78;5127313;28;20116;-70
2023/03/18 05:33:33;;;;;;;7.25;6.13;;;;;;;3.38;44.21;99198.53;5127036;28;20234;-69
2023/03/18 05:36:01;;;;;;;8.10;6.50;;;;;;;3.34;44.25;99193.44;5127736;28;20065;-70
2023/03/18 05:38:28;;;;;;;8.82;6.40;;;;;;;3.34;44.15;99199.53;5126317;28;20036;-70
2023/03/18 05:40:55;;;;;;;11.05;7.55;;;;;;;3.31;44.69;99202.25;5127259;28;20051;-70
2023/03/18 05:43:23;;;;;;;8.27;6.05;;;;;;;3.31;44.36;99198.75;5126410;28;20341;-69
2023/03/18 05:45:50;;;;;;;7.35;5.82;;;;;;;3.17;44.41;99175.59;5127521;28;20055;-70
2023/03/18 05:48:17;;;;;;;10.57;6.55;;;;;;;3.35;43.97;99206.50;5127401;28;20058;-70
2023/03/18 05:50:45;;;;;;;9.52;6.72;;;;;;;3.38;43.86;99211.66;5127133;28;20040;-70
2023/03/18 05:53:15;;;;;;;7.38;6.13;;;;;;;3.05;44.11;99144.50;5126809;28;20035;-70
2023/03/18 05:55:43;;;;;;;8.02;5.68;;;;;;;3.41;43.62;99205.47;5126404;28;20036;-70
2023/03/18 05:58:10;;;;;;;7.80;5.93;;;;;;;3.48;43.68;99209.63;5126940;28;20295;-69
2023/03/18 06:00:37;;;;;;;9.02;6.18;;;;;;;3.53;43.36;99216.44;5126696;28;20046;-70
2023/03/18 06:03:05;;;;;;;8.10;6.80;;;;;;;2.95;43.58;99109.88;5126876;28;20279;-70
2023/03/18 06:05:31;;;;;;;12.98;6.65;;;;;;;3.31;44.23;99181.28;5126658;28;20051;-70
2023/03/18 06:07:59;;;;;;;7.40;5.82;;;;;;;3.50;43.54;99186.84;5126198;28;20039;-70
2023/03/18 06:10:27;;;;;;;7.57;5.93;;;;;;;3.13;43.22;99111.97;5125630;28;20078;-70
2023/03/18 06:12:55;;;;;;;8.95;6.53;;;;;;;3.91;43.01;99219.69;5127001;28;20279;-70
2023/03/18 06:15:23;;;;;;;10.27;6.03;;;;;;;4.02;42.91;99230.72;5126986;28;20035;-70
2023/03/18 06:17:51;;;;;;;9.27;5.90;;;;;;;4.12;42.76;99242.63;5126354;28;20096;-70
2023/03/18 06:20:18;;;;;;;8.32;6.13;;;;;;;4.17;43.21;99229.38;5126859;28;20039;-69
2023/03/18 06:22:48;;;;;;;9.93;6.28;;;;;;;4.33;42.94;99224.53;5126267;28;20036;-69
2023/03/18 06:25:17;;;;;;;9.43;5.72;;;;;;;4.47;42.64;99219.72;5126083;28;20114;-70
2023/03/18 06:27:46;;;;;;;12.40;7.22;;;;;;;4.38;41.74;99151.78;5125299;28;20322;-69
2023/03/18 06:30:15;;;;;;;9.07;6.45;;;;;;;5.03;41.46;99212.56;5126479;28;20292;-70
2023/03/18 06:32:43;;;;;;;11.23;6.80;;;;;;;5.12;41.38;99222.75;5125085;28;20056;-70
2023/03/18 06:35:10;;;;;;;7.97;6.57;;;;;;;5.13;41.28;99223.63;5126950;28;20191;-70
2023/03/18 06:37:38;;;;;;;8.45;5.80;;;;;;;5.17;41.16;99216.50;5125951;28;20043;-70
2023/03/18 06:40:07;;;;;;;8.35;6.18;;;;;;;5.17;41.22;99219.97;5125636;28;20246;-70
2023/03/18 06:42:34;;;;;;;7.20;5.75;;;;;;;5.18;41.32;99223.47;5126549;28;20039;-70
2023/03/18 06:45:02;;;;;;;7.95;7.00;;;;;;;4.75;41.67;99162.75;5126159;28;20287;-70
2023/03/18 06:47:29;;;;;;;9.48;6.15;;;;;;;5.11;41.58;99233.31;5125152;28;20043;-70
2023/03/18 06:49:56;;;;;;;10.45;6.95;;;;;;;5.04;41.25;99229.19;5125810;28;20042;-70
2023/03/18 06:52:23;;;;;;;9.40;6.70;;;;;;;5.03;41.68;99228.34;5125888;28;20039;-70
2023/03/18 06:54:52;;;;;;;8.70;6.63;;;;;;;5.04;41.79;99231.81;5126095;28;20047;-70
2023/03/18 06:57:19;;;;;;;8.32;6.22;;;;;;;5.09;41.83;99235.16;5125796;28;20093;-70
2023/03/18 06:59:46;;;;;;;7.18;6.05;;;;;;;4.90;41.47;99190.28;5126338;28;20050;-70
2023/03/18 07:02:15;;;;;;;8.57;6.68;;;;;;;5.18;41.73;99237.44;5124920;28;20044;-70
2023/03/18 07:04:42;;;;;;;9.55;6.28;;;;;;;5.37;41.34;99238.50;5126285;28;20063;-70
2023/03/18 07:07:09;;;;;;;12.52;8.85;;;;;;;5.68;40.88;99240.88;5125653;28;20046;-70
2023/03/18 07:09:36;;;;;;;10.30;7.72;;;;;;;5.92;40.57;99230.34;5124891;28;20122;-70
2023/03/18 07:12:05;;;;;;;10.65;6.63;;;;;;;6.12;40.03;99234.84;5126192;28;20043;-70
2023/03/18 07:14:32;;;;;;;8.27;6.50;;;;;;;6.22;40.04;99226.53;5125697;28;20070;-70
2023/03/18 07:16:59;;;;;;;9.70;7.28;;;;;;;6.59;39.64;99225.91;5125651;28;20085;-71
2023/03/18 07:19:27;;;;;;;9.70;6.85;;;;;;;6.25;39.16;99131.66;5125662;28;20271;-71
2023/03/18 07:21:54;;;;;;;8.02;6.07;;;;;;;7.11;38.60;99225.53;5124687;28;20235;-71
2023/03/18 07:24:21;;;;;;;12.02;6.78;;;;;;;7.30;38.39;99231.72;5126108;28;20110;-70
2023/03/18 07:26:49;;;;;;;10.07;6.13;;;;;;;7.50;38.01;99229.09;5126002;28;20296;-71
2023/03/18 07:29:16;;;;;;;13.07;7.32;;;;;;;7.62;38.20;99227.69;5125856;28;20170;-70
2023/03/18 07:31:43;;;;;;;10.52;7.00;;;;;;;7.85;38.03;99235.41;5125699;28;20104;-70
2023/03/18 07:34:10;;;;;;;11.00;6.75;;;;;;;7.98;37.54;99236.56;5126060;28;20058;-70
2023/03/18 07:36:38;;;;;;;8.88;6.00;;;;;;;7.94;37.42;99234.97;5124679;28;20035;-70
2023/03/18 07:39:06;;;;;;;9.30;6.10;;;;;;;7.68;37.49;99193.97;5124655;28;20044;-70
2023/03/18 07:41:33;;;;;;;8.90;7.30;;;;;;;7.78;37.50;99206.75;5124690;28;20044;-70
2023/03/18 07:43:59;;;;;;;8.02;6.53;;;;;;;8.25;37.36;99241.47;5124450;28;20036;-70
2023/03/18 07:46:26;;;;;;;8.43;6.13;;;;;;;8.34;36.79;99238.38;5125461;28;20032;-70
2023/03/18 07:48:53;;;;;;;6.70;5.68;;;;;;;8.40;37.31;99232.81;5124534;28;20126;-70
2023/03/18 07:51:21;;;;;;;8.68;6.40;;;;;;;8.20;36.84;99210.00;5126091;28;20039;-70
2023/03/18 07:53:50;;;;;;;10.00;7.43;;;;;;;8.03;37.16;99245.09;5129499;28;20035;-70
2023/03/18 07:56:17;;;;;;;8.90;7.10;;;;;;;7.14;37.55;99131.38;5129256;28;20229;-70
2023/03/18 07:58:44;;;;;;;10.23;6.85;;;;;;;7.79;37.72;99242.75;5129065;28;20049;-70
2023/03/18 08:01:14;;;;;;;8.70;6.85;;;;;;;7.78;37.96;99244.53;5128439;28;20040;-70
2023/03/18 08:03:42;;;;;;;11.23;6.82;;;;;;;7.11;37.72;99097.25;5128836;28;20097;-70
2023/03/18 08:06:10;;;;;;;7.00;6.28;;;;;;;7.65;37.17;99156.31;5128088;28;20057;-70
2023/03/18 08:08:37;;;;;;;9.80;6.35;;;;;;;7.68;37.18;99109.56;5129175;28;20043;-70
2023/03/18 08:11:07;;;;;;;8.35;6.45;;;;;;;8.78;36.79;99233.56;5129463;28;20047;-71
2023/03/18 08:13:34;;;;;;;9.07;6.38;;;;;;;8.57;36.46;99182.66;5129072;28;20275;-71
2023/03/18 08:16:00;;;;;;;8.55;7.20;;;;;;;8.91;36.39;99244.38;5129057;28;20059;-71
2023/03/18 08:18:27;;;;;;;11.65;6.93;;;;;;;9.00;36.29;99249.22;5129300;28;20058;-71
2023/03/18 08:20:54;;;;;;;8.23;6.57;;;;;;;9.01;36.17;99245.63;5128418;28;20234;-70
2023/03/18 08:23:21;;;;;;;10.80;7.25;;;;;;;8.96;36.09;99243.22;5128996;28;20199;-70
2023/03/18 08:25:49;;;;;;;7.32;6.25;;;;;;;8.87;36.42;99250.75;5128728;28;20303;-70
2023/03/18 08:28:19;;;;;;;7.93;6.03;;;;;;;8.19;36.13;99121.16;5128627;28;20046;-70
2023/03/18 08:30:47;;;;;;;8.18;6.85;;;;;;;8.97;36.41;99246.72;5127372;28;20299;-71
2023/03/18 08:33:14;;;;;;;7.97;6.03;;;;;;;8.53;36.24;99169.69;5127608;28;20065;-70
2023/03/18 08:35:41;;;;;;;9.32;6.93;;;;;;;9.01;36.21;99248.28;5127855;28;20035;-70
2023/03/18 08:38:09;;;;;;;8.43;6.50;;;;;;;9.09;36.40;99251.38;5128425;28;20084;-70
2023/03/18 08:40:36;;;;;;;7.93;6.68;;;;;;;9.08;36.02;99247.03;5128761;28;20051;-70
2023/03/18 08:43:02;;;;;;;7.68;6.20;;;;;;;8.66;36.04;99191.91;5128282;28;20194;-70
2023/03/18 08:45:31;;;;;;;9.70;5.95;;;;;;;8.55;35.99;99199.50;5128463;28;20036;-70
2023/03/18 08:47:59;;;;;;;7.88;5.75;;;;;;;8.68;36.14;99201.47;5127263;28;20035;-71
2023/03/18 08:50:27;;;;;;;12.98;7.38;;;;;;;8.94;35.94;99252.16;5127179;28;20035;-70
2023/03/18 08:52:56;;;;;;;8.63;6.53;;;;;;;8.57;35.99;99193.22;5128523;28;20043;-70
2023/03/18 08:55:24;;;;;;;9.90;7.13;;;;;;;8.93;35.95;99261.03;5127859;28;20299;-70
2023/03/18 08:57:52;;;;;;;10.63;6.75;;;;;;;8.46;36.34;99195.53;5128215;28;20291;-70
2023/03/18 09:00:20;;;;;;;9.20;7.00;;;;;;;8.81;36.25;99259.00;5127853;28;20271;-70
2023/03/18 09:02:48;;;;;;;8.20;5.93;;;;;;;8.83;35.81;99259.78;5126689;28;20047;-70
2023/03/18 09:05:16;;;;;;;9.05;6.97;;;;;;;8.78;36.10;99265.28;5127943;28;20066;-70
2023/03/18 09:07:44;;;;;;;8.15;6.18;;;;;;;8.86;36.24;99255.19;5127854;28;20036;-70
2023/03/18 09:10:13;;;;;;;12.13;7.22;;;;;;;8.16;35.89;99134.53;5128013;28;20059;-70
2023/03/18 09:12:41;;;;;;;7.53;6.72;;;;;;;8.85;35.96;99210.34;5127742;28;20036;-70
2023/03/18 09:15:10;;;;;;;8.70;6.85;;;;;;;9.18;35.54;99253.56;5128008;28;20311;-70
2023/03/18 09:17:39;;;;;;;9.98;6.70;;;;;;;9.24;35.99;99258.56;5126733;28;20122;-71
2023/03/18 09:20:10;;;;;;;9.38;7.07;;;;;;;9.07;35.04;99208.31;5126311;28;20038;-70
2023/03/18 09:22:37;;;;;;;10.80;6.68;;;;;;;9.38;35.56;99239.34;5127249;28;20180;-70
2023/03/18 09:25:05;;;;;;;9.35;7.57;;;;;;;9.52;35.25;99239.50;5127354;28;20039;-70
2023/03/18 09:27:32;;;;;;;8.82;7.25;;;;;;;9.75;35.24;99243.59;5127698;28;20049;-71
2023/03/18 09:29:59;;;;;;;9.75;7.05;;;;;;;9.03;35.04;99101.03;5127725;28;20057;-71
2023/03/18 09:32:26;;;;;;;9.95;7.00;;;;;;;9.98;34.83;99250.28;5126958;28;20196;-70
2023/03/18 09:34:53;;;;;;;8.57;6.50;;;;;;;10.14;34.68;99245.88;5127433;28;20252;-70
2023/03/18 09:37:22;;;;;;;9.15;6.78;;;;;;;10.36;34.28;99252.63;5127464;28;20247;-70
2023/03/18 09:39:49;;;;;;;9.40;7.20;;;;;;;10.50;33.91;99242.09;5126369;28;20059;-70
2023/03/18 09:42:35;;;;;;;9.63;7.18;;;;;;;8.30;33.65;98853.97;5126430;28;20039;-70
2023/03/18 09:45:06;;;;;;;9.02;6.85;;;;;;;10.62;33.71;99243.19;5126691;28;20051;-70
2023/03/18 09:47:54;;;;;;;12.52;7.55;;;;;;;10.16;33.08;99161.88;5126896;28;20055;-71
2023/03/18 09:50:36;;;;;;;9.98;7.05;;;;;;;10.54;32.86;99214.47;5125627;28;20330;-70
2023/03/18 09:53:16;;;;;;;10.90;7.35;;;;;;;9.99;32.69;99134.66;5125744;28;20199;-71
2023/03/18 09:55:47;;;;;;;9.52;7.15;;;;;;;9.22;33.83;98993.38;5126732;28;20047;-71
2023/03/18 09:58:21;;;;;;;9.95;6.80;;;;;;;10.66;33.54;99223.53;5126522;27;20039;-71
2023/03/18 10:00:52;;;;;;;12.15;7.90;;;;;;;10.74;33.75;99227.44;5125588;28;20229;-70
2023/03/18 10:03:28;;;;;;;12.45;8.60;;;;;;;10.77;32.62;99218.47;5126509;28;20053;-70
2023/03/18 10:05:59;;;;;;;11.25;6.95;;;;;;;10.55;32.58;99168.50;5125387;28;20074;-71
2023/03/18 10:08:42;;;;;;;9.50;7.07;;;;;;;11.06;32.38;99214.97;5126677;28;20102;-70
2023/03/18 10:11:18;;;;;;;9.52;6.78;;;;;;;11.32;32.58;99216.06;5125434;28;20039;-71
2023/03/18 10:13:53;;;;;;;9.80;7.05;;;;;;;11.46;31.94;99232.03;5125353;28;20066;-71
2023/03/18 10:16:25;;;;;;;8.75;6.60;;;;;;;11.54;31.94;99224.44;5126561;28;20043;-70
2023/03/18 10:18:53;;;;;;;9.27;7.70;;;;;;;11.66;32.66;99224.63;5108760;28;20123;-71
2023/03/18 10:21:30;;;;;;;9.60;7.60;;;;;;;11.80;31.52;99216.66;5126955;28;20052;-71
2023/03/18 10:24:09;;;;;;;11.13;6.95;;;;;;;11.64;31.00;99176.94;5126095;28;20073;-71
2023/03/18 10:26:42;;;;;;;9.70;6.22;;;;;;;11.89;31.49;99221.41;5126724;28;20040;-71
2023/03/18 10:29:26;;;;;;;9.07;7.28;;;;;;;11.88;30.53;99230.31;5126594;28;20059;-70
2023/03/18 10:32:03;;;;;;;8.13;7.00;;;;;;;11.83;31.66;99190.78;5125880;28;20048;-71
2023/03/18 10:34:39;;;;;;;9.93;7.28;;;;;;;12.22;30.99;99207.00;5126312;28;20107;-71
2023/03/18 10:37:14;;;;;;;10.70;7.30;;;;;;;12.18;30.92;99207.19;5126090;28;20028;-71
2023/03/18 10:39:44;;;;;;;12.10;7.60;;;;;;;11.76;31.28;99127.53;5126513;28;20050;-71
2023/03/18 10:42:22;;;;;;;12.15;6.95;;;;;;;11.63;30.60;99106.22;5125542;28;20069;-71
2023/03/18 10:44:51;;;;;;;9.65;7.22;;;;;;;12.32;31.57;99181.53;5125959;28;20043;-71
2023/03/18 10:47:22;;;;;;;12.50;7.97;;;;;;;12.47;31.47;99207.97;5125148;28;20045;-71
2023/03/18 10:49:57;;;;;;;9.63;7.03;;;;;;;12.57;31.46;99204.72;5126164;28;20035;-71
2023/03/18 10:52:33;;;;;;;8.15;6.93;;;;;;;12.25;31.19;99143.88;5126234;28;20052;-71
2023/03/18 10:55:01;;;;;;;11.20;8.27;;;;;;;12.69;30.63;99202.09;5125843;28;20299;-71
2023/03/18 10:57:28;;;;;;;10.80;7.78;;;;;;;12.69;31.76;99199.44;5126386;28;20111;-70
2023/03/18 10:59:55;;;;;;;9.35;6.97;;;;;;;12.78;31.64;99203.28;5125143;28;20127;-71
2023/03/18 11:02:26;;;;;;;8.43;7.45;;;;;;;12.84;30.98;99198.41;5125914;28;20114;-71
2023/03/18 11:04:57;;;;;;;10.38;6.68;;;;;;;12.86;30.93;99195.66;5125810;28;20119;-71
2023/03/18 11:07:26;;;;;;;9.32;7.30;;;;;;;12.56;31.02;99134.75;5124869;28;20208;-70
2023/03/18 11:09:55;;;;;;;12.65;7.28;;;;;;;12.20;31.02;99090.19;5124965;28;20114;-71
2023/03/18 11:12:27;;;;;;;11.90;8.30;;;;;;;12.51;30.43;99164.28;5108014;28;20063;-71
2023/03/18 11:14:55;;;;;;;10.77;7.97;;;;;;;12.72;31.54;99182.44;5125988;28;20039;-71
2023/03/18 11:17:26;;;;;;;11.27;7.93;;;;;;;12.89;31.35;99182.16;5125722;28;20059;-71
2023/03/18 11:20:04;;;;;;;10.77;6.80;;;;;;;12.93;30.65;99194.28;5125653;28;20043;-71
2023/03/18 11:22:31;;;;;;;11.70;8.35;;;;;;;13.06;31.09;99186.34;5124641;28;20048;-71
2023/03/18 11:25:04;;;;;;;10.93;7.38;;;;;;;13.10;30.71;99183.38;5126000;28;20318;-70
2023/03/18 11:27:45;;;;;;;10.82;7.95;;;;;;;13.08;29.69;99185.28;5129385;28;20081;-71
2023/03/18 11:30:19;;;;;;;9.57;8.15;;;;;;;13.09;30.54;99176.34;5129643;28;20058;-71
2023/03/18 11:32:55;;;;;;;11.60;8.20;;;;;;;12.79;29.74;99127.88;5128404;28;20131;-71
2023/03/18 11:35:25;;;;;;;10.93;7.90;;;;;;;12.25;31.03;99056.22;5129446;28;20535;-70
2023/03/18 11:37:52;;;;;;;10.43;7.88;;;;;;;13.10;30.71;99179.84;5129322;28;20298;-71
2023/03/18 11:40:26;;;;;;;10.48;7.10;;;;;;;13.08;30.18;99187.94;5129180;28;20214;-71
2023/03/18 11:43:00;;;;;;;8.98;6.60;;;;;;;13.11;30.20;99155.78;5129225;28;20054;-71
2023/03/18 11:45:47;;;;;;;11.33;8.13;;;;;;;12.88;29.88;99143.22;5129588;28;20063;-71